createdAt,value
2022-08-01T00:00:57.421Z,14.74
2022-08-01T00:02:00.469Z,14.73
2022-08-01T00:03:03.541Z,14.73
2022-08-01T00:04:06.397Z,14.73
2022-08-01T00:05:09.673Z,14.73
2022-08-01T00:06:12.750Z,14.74
2022-08-01T00:07:15.815Z,14.72
2022-08-01T00:08:18.761Z,14.73
2022-08-01T00:09:24.161Z,14.73
2022-08-01T00:10:27.672Z,14.72
2022-08-01T00:11:30.843Z,14.71
2022-08-01T00:12:33.793Z,14.70
2022-08-01T00:13:36.764Z,14.70
2022-08-01T00:14:39.844Z,14.70
2022-08-01T00:15:46.034Z,14.70
2022-08-01T00:16:57.234Z,14.70
2022-08-01T00:18:00.173Z,14.70
2022-08-01T00:19:03.110Z,14.70
2022-08-01T00:20:07.448Z,14.71
2022-08-01T00:21:10.597Z,14.72
2022-08-01T00:22:13.768Z,14.72
2022-08-01T00:23:16.658Z,14.73
2022-08-01T00:24:19.526Z,14.73
2022-08-01T00:25:22.393Z,14.74
2022-08-01T00:26:37.590Z,14.75
2022-08-01T00:27:40.854Z,14.75
2022-08-01T00:28:43.725Z,14.76
2022-08-01T00:30:11.137Z,14.76
2022-08-01T00:31:09.627Z,14.77
2022-08-01T00:32:12.558Z,14.77
2022-08-01T00:33:15.741Z,14.78
2022-08-01T00:34:18.572Z,14.78
2022-08-01T00:35:21.483Z,14.78
2022-08-01T00:36:24.489Z,14.79
2022-08-01T00:37:27.309Z,14.78
2022-08-01T00:38:30.436Z,14.79
2022-08-01T00:39:34.208Z,14.79
2022-08-01T00:40:37.164Z,14.79
2022-08-01T00:41:40.032Z,14.79
2022-08-01T00:42:43.789Z,14.80
2022-08-01T00:43:47.086Z,14.80
2022-08-01T00:44:50.348Z,14.81
2022-08-01T00:45:53.250Z,14.81
2022-08-01T00:46:56.152Z,14.82
2022-08-01T00:47:59.045Z,14.82
2022-08-01T00:49:02.665Z,14.83
2022-08-01T00:50:06.069Z,14.85
2022-08-01T00:51:09.464Z,14.84
2022-08-01T00:52:12.567Z,14.85
2022-08-01T00:53:19.044Z,14.85
2022-08-01T00:54:22.471Z,14.85
2022-08-01T00:55:25.415Z,14.85
2022-08-01T00:56:28.789Z,14.84
2022-08-01T00:58:02.491Z,14.84
2022-08-01T00:58:56.209Z,14.85
2022-08-01T00:59:59.641Z,14.85
2022-08-01T01:01:03.010Z,14.86
2022-08-01T01:02:15.023Z,14.85
2022-08-01T01:03:19.080Z,14.85
2022-08-01T01:04:21.922Z,14.85
2022-08-01T01:05:25.270Z,14.83
2022-08-01T01:06:43.168Z,14.82
2022-08-01T01:07:51.545Z,14.81
2022-08-01T01:08:54.420Z,14.79
2022-08-01T01:09:59.905Z,14.78
2022-08-01T01:11:08.266Z,14.77
2022-08-01T01:12:17.752Z,14.76
2022-08-01T01:13:36.507Z,14.75
2022-08-01T01:15:11.105Z,14.74
2022-08-01T01:16:15.639Z,14.74
2022-08-01T01:17:50.659Z,14.73
2022-08-01T01:19:05.815Z,14.72
2022-08-01T01:20:12.467Z,14.72
2022-08-01T01:21:18.757Z,14.71
2022-08-01T01:22:40.480Z,14.71
2022-08-01T01:24:02.152Z,14.70
2022-08-01T01:25:23.520Z,14.69
2022-08-01T01:26:32.751Z,14.68
2022-08-01T01:27:41.630Z,14.67
2022-08-01T01:29:03.293Z,14.67
2022-08-01T01:30:07.162Z,14.65
2022-08-01T01:32:51.385Z,14.60
2022-08-01T01:33:55.185Z,14.58
2022-08-01T01:35:01.060Z,14.56
2022-08-01T01:36:07.512Z,14.54
2022-08-01T01:37:17.127Z,14.53
2022-08-01T01:38:24.432Z,14.51
2022-08-01T01:39:28.002Z,14.49
2022-08-01T01:40:31.388Z,14.48
2022-08-01T01:41:37.716Z,14.47
2022-08-01T01:42:42.332Z,14.46
2022-08-01T01:43:46.170Z,14.46
2022-08-01T01:44:50.687Z,14.46
2022-08-01T01:45:54.497Z,14.46
2022-08-01T01:46:57.565Z,14.46
2022-08-01T01:48:02.069Z,14.46
2022-08-01T01:49:06.573Z,14.47
2022-08-01T01:50:10.180Z,14.46
2022-08-01T01:51:14.275Z,14.45
2022-08-01T01:52:20.728Z,14.44
2022-08-01T01:53:24.098Z,14.43
2022-08-01T01:54:30.956Z,14.43
2022-08-01T01:55:49.371Z,14.43
2022-08-01T01:56:53.388Z,14.43
2022-08-01T01:57:57.764Z,14.42
2022-08-01T01:59:02.943Z,14.41
2022-08-01T02:00:08.053Z,14.42
2022-08-01T02:01:14.680Z,14.42
2022-08-01T02:02:18.969Z,14.44
2022-08-01T02:03:22.628Z,14.44
2022-08-01T02:04:26.949Z,14.44
2022-08-01T02:05:31.116Z,14.45
2022-08-01T02:06:34.671Z,14.45
2022-08-01T02:07:38.077Z,14.44
2022-08-01T02:08:41.742Z,14.45
2022-08-01T02:09:45.115Z,14.46
2022-08-01T02:11:07.651Z,14.45
2022-08-01T02:12:14.182Z,14.45
2022-08-01T02:13:17.545Z,14.45
2022-08-01T02:14:24.799Z,14.46
2022-08-01T02:15:29.076Z,14.46
2022-08-01T02:16:36.857Z,14.47
2022-08-01T02:17:43.046Z,14.47
2022-08-01T02:18:46.055Z,14.47
2022-08-01T02:19:49.673Z,14.47
2022-08-01T02:20:53.791Z,14.46
2022-08-01T02:21:58.422Z,14.46
2022-08-01T02:23:05.462Z,14.46
2022-08-01T02:24:15.261Z,14.46
2022-08-01T02:25:26.353Z,14.47
2022-08-01T02:26:29.646Z,14.48
2022-08-01T02:27:35.887Z,14.48
2022-08-01T02:28:48.718Z,14.48
2022-08-01T02:29:54.197Z,14.49
2022-08-01T02:31:01.480Z,14.48
2022-08-01T02:32:05.999Z,14.49
2022-08-01T02:33:32.864Z,14.49
2022-08-01T02:34:36.814Z,14.49
2022-08-01T02:36:31.611Z,14.49
2022-08-01T02:37:05.729Z,14.51
2022-08-01T02:38:10.693Z,14.50
2022-08-01T02:39:14.598Z,14.51
2022-08-01T02:40:18.771Z,14.50
2022-08-01T02:41:23.071Z,14.49
2022-08-01T02:42:30.874Z,14.49
2022-08-01T02:43:35.088Z,14.48
2022-08-01T02:44:40.531Z,14.48
2022-08-01T02:45:45.974Z,14.48
2022-08-01T02:46:52.348Z,14.49
2022-08-01T02:47:58.792Z,14.49
2022-08-01T02:49:04.433Z,14.49
2022-08-01T02:50:09.297Z,14.48
2022-08-01T02:51:13.190Z,14.48
2022-08-01T02:52:17.237Z,14.48
2022-08-01T02:53:22.364Z,14.48
2022-08-01T02:54:46.747Z,14.49
2022-08-01T02:55:49.982Z,14.50
2022-08-01T02:56:53.787Z,14.50
2022-08-01T02:57:59.934Z,14.51
2022-08-01T02:59:07.623Z,14.52
2022-08-01T03:00:13.132Z,14.52
2022-08-01T03:01:18.482Z,14.53
2022-08-01T03:02:24.134Z,14.53
2022-08-01T03:03:27.219Z,14.53
2022-08-01T03:04:31.246Z,14.53
2022-08-01T03:05:35.856Z,14.52
2022-08-01T03:06:39.357Z,14.52
2022-08-01T03:07:43.373Z,14.50
2022-08-01T03:08:47.799Z,14.51
2022-08-01T03:09:51.382Z,14.52
2022-08-01T03:10:55.082Z,14.53
2022-08-01T03:11:59.959Z,14.53
2022-08-01T03:13:04.581Z,14.53
2022-08-01T03:14:08.807Z,14.54
2022-08-01T03:15:13.178Z,14.54
2022-08-01T03:16:16.617Z,14.55
2022-08-01T03:17:20.159Z,14.55
2022-08-01T03:18:25.402Z,14.56
2022-08-01T03:19:28.889Z,14.56
2022-08-01T03:20:33.812Z,14.57
2022-08-01T03:21:38.243Z,14.57
2022-08-01T03:22:43.397Z,14.57
2022-08-01T03:23:46.834Z,14.57
2022-08-01T03:24:52.373Z,14.57
2022-08-01T03:25:55.885Z,14.56
2022-08-01T03:26:59.314Z,14.57
2022-08-01T03:28:04.342Z,14.58
2022-08-01T03:29:10.866Z,14.60
2022-08-01T03:30:14.138Z,14.61
2022-08-01T03:31:17.322Z,14.61
2022-08-01T03:32:21.705Z,14.62
2022-08-01T03:33:24.689Z,14.63
2022-08-01T03:34:28.517Z,14.65
2022-08-01T03:35:33.195Z,14.67
2022-08-01T03:36:43.053Z,14.69
2022-08-01T03:38:14.329Z,14.71
2022-08-01T03:39:12.069Z,14.75
2022-08-01T03:40:18.480Z,14.76
2022-08-01T03:41:26.344Z,14.79
2022-08-01T03:42:33.581Z,14.83
2022-08-01T03:43:42.624Z,14.86
2022-08-01T03:44:54.025Z,14.88
2022-08-01T03:45:59.297Z,14.90
2022-08-01T03:47:05.212Z,14.93
2022-08-01T03:48:14.268Z,14.96
2022-08-01T03:49:22.744Z,14.99
2022-08-01T03:50:26.236Z,15.01
2022-08-01T03:51:31.048Z,15.04
2022-08-01T03:52:35.306Z,15.07
2022-08-01T03:53:40.782Z,15.11
2022-08-01T03:54:47.874Z,15.14
2022-08-01T03:55:51.817Z,15.17
2022-08-01T03:56:55.689Z,15.20
2022-08-01T03:57:59.782Z,15.24
2022-08-01T03:59:04.297Z,15.27
2022-08-01T04:00:09.460Z,15.31
2022-08-01T04:01:18.541Z,15.37
2022-08-01T04:02:22.904Z,15.43
2022-08-01T04:03:26.294Z,15.48
2022-08-01T04:04:29.760Z,15.54
2022-08-01T04:05:32.738Z,15.59
2022-08-01T04:06:38.374Z,15.63
2022-08-01T04:07:43.988Z,15.69
2022-08-01T04:08:56.561Z,15.73
2022-08-01T04:09:59.955Z,15.79
2022-08-01T04:11:02.958Z,15.84
2022-08-01T04:12:10.156Z,15.88
2022-08-01T04:13:15.692Z,15.94
2022-08-01T04:14:18.667Z,15.99
2022-08-01T04:15:21.984Z,16.03
2022-08-01T04:16:24.890Z,16.08
2022-08-01T04:17:27.831Z,16.12
2022-08-01T04:18:30.836Z,16.15
2022-08-01T04:19:33.718Z,16.18
2022-08-01T04:20:36.689Z,16.22
2022-08-01T04:21:39.712Z,16.25
2022-08-01T04:22:43.190Z,16.29
2022-08-01T04:23:47.773Z,16.33
2022-08-01T04:24:57.407Z,16.36
2022-08-01T04:26:00.935Z,16.41
2022-08-01T04:27:06.250Z,16.46
2022-08-01T04:28:12.212Z,16.49
2022-08-01T04:29:17.013Z,16.52
2022-08-01T04:30:31.398Z,16.55
2022-08-01T04:31:35.518Z,16.57
2022-08-01T04:32:39.906Z,16.59
2022-08-01T04:33:46.590Z,16.60
2022-08-01T04:34:50.540Z,16.62
2022-08-01T04:36:03.653Z,16.65
2022-08-01T04:37:09.749Z,16.69
2022-08-01T04:38:15.261Z,16.73
2022-08-01T04:39:19.014Z,16.76
2022-08-01T04:40:27.252Z,16.78
2022-08-01T04:41:31.386Z,16.81
2022-08-01T04:42:34.411Z,16.83
2022-08-01T04:43:37.961Z,16.85
2022-08-01T04:44:41.534Z,16.85
2022-08-01T04:45:47.817Z,16.86
2022-08-01T04:46:51.764Z,16.89
2022-08-01T04:47:55.312Z,16.90
2022-08-01T04:48:58.685Z,16.91
2022-08-01T04:50:01.823Z,16.92
2022-08-01T04:51:05.629Z,16.93
2022-08-01T04:52:10.901Z,16.94
2022-08-01T04:53:17.835Z,16.97
2022-08-01T04:54:22.540Z,17.00
2022-08-01T04:55:25.481Z,17.02
2022-08-01T04:56:28.512Z,17.05
2022-08-01T04:57:31.813Z,17.08
2022-08-01T04:58:34.936Z,17.10
2022-08-01T04:59:42.487Z,17.12
2022-08-01T05:00:45.545Z,17.14
2022-08-01T05:01:52.076Z,17.17
2022-08-01T05:02:55.105Z,17.18
2022-08-01T05:03:58.000Z,17.20
2022-08-01T05:05:00.913Z,17.22
2022-08-01T05:06:03.959Z,17.24
2022-08-01T05:07:07.538Z,17.25
2022-08-01T05:08:11.146Z,17.26
2022-08-01T05:09:14.239Z,17.26
2022-08-01T05:10:17.178Z,17.27
2022-08-01T05:11:22.538Z,17.28
2022-08-01T05:12:25.645Z,17.29
2022-08-01T05:13:28.563Z,17.31
2022-08-01T05:14:34.121Z,17.33
2022-08-01T05:15:39.966Z,17.34
2022-08-01T05:16:43.036Z,17.36
2022-08-01T05:17:46.210Z,17.38
2022-08-01T05:18:49.545Z,17.40
2022-08-01T05:19:52.904Z,17.42
2022-08-01T05:20:56.021Z,17.43
2022-08-01T05:22:00.302Z,17.44
2022-08-01T05:23:03.931Z,17.46
2022-08-01T05:24:06.855Z,17.48
2022-08-01T05:25:09.871Z,17.50
2022-08-01T05:26:15.123Z,17.52
2022-08-01T05:27:18.707Z,17.53
2022-08-01T05:28:22.358Z,17.56
2022-08-01T05:29:25.423Z,17.60
2022-08-01T05:30:28.312Z,17.67
2022-08-01T05:31:31.393Z,17.73
2022-08-01T05:32:34.322Z,17.79
2022-08-01T05:33:37.332Z,17.86
2022-08-01T05:34:40.311Z,17.92
2022-08-01T05:35:49.092Z,17.98
2022-08-01T05:36:56.926Z,18.02
2022-08-01T05:38:00.962Z,18.08
2022-08-01T05:39:04.109Z,18.13
2022-08-01T05:40:07.299Z,18.19
2022-08-01T05:41:11.165Z,18.24
2022-08-01T05:42:14.074Z,18.31
2022-08-01T05:43:17.336Z,18.33
2022-08-01T05:44:20.563Z,18.36
2022-08-01T05:45:23.606Z,18.40
2022-08-01T05:46:26.861Z,18.45
2022-08-01T05:47:30.645Z,18.50
2022-08-01T05:48:33.658Z,18.56
2022-08-01T05:49:36.626Z,18.63
2022-08-01T05:50:39.655Z,18.68
2022-08-01T05:51:42.663Z,18.75
2022-08-01T05:52:45.545Z,18.83
2022-08-01T05:53:48.631Z,18.89
2022-08-01T05:54:51.601Z,18.94
2022-08-01T05:55:54.471Z,18.99
2022-08-01T05:57:00.606Z,19.02
2022-08-01T05:58:03.849Z,19.09
2022-08-01T05:59:06.799Z,19.16
2022-08-01T06:00:10.866Z,19.20
2022-08-01T06:01:17.348Z,19.26
2022-08-01T06:02:20.479Z,19.29
2022-08-01T06:03:23.470Z,19.33
2022-08-01T06:04:26.493Z,19.34
2022-08-01T06:05:29.581Z,19.35
2022-08-01T06:06:32.497Z,19.37
2022-08-01T06:07:35.510Z,19.37
2022-08-01T06:08:41.690Z,19.38
2022-08-01T06:09:44.653Z,19.38
2022-08-01T06:10:49.091Z,19.39
2022-08-01T06:11:52.144Z,19.40
2022-08-01T06:12:55.049Z,19.45
2022-08-01T06:13:57.969Z,19.49
2022-08-01T06:15:00.938Z,19.52
2022-08-01T06:16:04.062Z,19.57
2022-08-01T06:17:06.926Z,19.61
2022-08-01T06:18:09.861Z,19.66
2022-08-01T06:19:12.754Z,19.71
2022-08-01T06:20:16.318Z,19.75
2022-08-01T06:21:19.311Z,19.80
2022-08-01T06:22:22.426Z,19.83
2022-08-01T06:23:31.897Z,19.87
2022-08-01T06:24:35.935Z,19.91
2022-08-01T06:25:38.893Z,19.96
2022-08-01T06:26:41.886Z,20.00
2022-08-01T06:27:45.183Z,20.04
2022-08-01T06:28:48.309Z,20.09
2022-08-01T06:29:54.507Z,20.14
2022-08-01T06:30:59.574Z,20.20
2022-08-01T06:32:03.098Z,20.26
2022-08-01T06:33:06.356Z,20.30
2022-08-01T06:34:09.358Z,20.35
2022-08-01T06:35:12.768Z,20.39
2022-08-01T06:36:15.593Z,20.44
2022-08-01T06:37:19.315Z,20.48
2022-08-01T06:38:22.352Z,20.53
2022-08-01T06:39:25.305Z,20.55
2022-08-01T06:40:28.219Z,20.58
2022-08-01T06:41:31.115Z,20.61
2022-08-01T06:42:36.666Z,20.63
2022-08-01T06:43:39.588Z,20.63
2022-08-01T06:44:42.564Z,20.65
2022-08-01T06:45:45.499Z,20.68
2022-08-01T06:46:48.701Z,20.69
2022-08-01T06:47:51.858Z,20.68
2022-08-01T06:48:54.911Z,20.68
2022-08-01T06:49:58.036Z,20.68
2022-08-01T06:51:09.911Z,20.70
2022-08-01T06:52:12.878Z,20.75
2022-08-01T06:53:15.893Z,20.79
2022-08-01T06:54:18.858Z,20.82
2022-08-01T06:55:21.941Z,20.86
2022-08-01T06:56:24.777Z,20.91
2022-08-01T06:57:27.909Z,20.94
2022-08-01T06:58:31.814Z,20.97
2022-08-01T06:59:35.048Z,20.99
2022-08-01T07:00:38.081Z,21.02
2022-08-01T07:01:41.073Z,21.03
2022-08-01T07:02:44.501Z,21.06
2022-08-01T07:03:52.366Z,21.10
2022-08-01T07:05:01.159Z,21.12
2022-08-01T07:06:04.476Z,21.13
2022-08-01T07:07:07.476Z,21.16
2022-08-01T07:08:10.603Z,21.17
2022-08-01T07:09:14.685Z,21.15
2022-08-01T07:10:18.020Z,21.14
2022-08-01T07:11:21.301Z,21.15
2022-08-01T07:12:24.233Z,21.16
2022-08-01T07:13:44.068Z,21.20
2022-08-01T07:14:48.847Z,21.19
2022-08-01T07:15:52.650Z,21.21
2022-08-01T07:16:55.542Z,21.25
2022-08-01T07:17:59.895Z,21.29
2022-08-01T07:19:02.868Z,21.33
2022-08-01T07:20:06.953Z,21.36
2022-08-01T07:21:16.554Z,21.36
2022-08-01T07:22:37.165Z,21.39
2022-08-01T07:23:40.170Z,21.42
2022-08-01T07:24:49.047Z,21.48
2022-08-01T07:26:00.911Z,21.56
2022-08-01T07:27:23.144Z,21.65
2022-08-01T07:28:26.894Z,21.75
2022-08-01T07:29:29.812Z,21.85
2022-08-01T07:30:32.737Z,21.95
2022-08-01T07:31:35.965Z,22.04
2022-08-01T07:32:38.864Z,22.13
2022-08-01T07:33:48.951Z,22.14
2022-08-01T07:34:52.372Z,22.11
2022-08-01T07:35:55.584Z,22.09
2022-08-01T07:36:58.549Z,22.10
2022-08-01T07:38:01.622Z,22.13
2022-08-01T07:39:04.586Z,22.16
2022-08-01T07:40:07.921Z,22.16
2022-08-01T07:41:11.034Z,22.15
2022-08-01T07:42:14.436Z,22.11
2022-08-01T07:43:17.552Z,22.12
2022-08-01T07:44:20.469Z,22.15
2022-08-01T07:45:23.437Z,22.17
2022-08-01T07:46:26.341Z,22.20
2022-08-01T07:47:29.482Z,22.23
2022-08-01T07:48:33.008Z,22.26
2022-08-01T07:49:40.463Z,22.28
2022-08-01T07:50:43.917Z,22.33
2022-08-01T07:52:03.355Z,22.38
2022-08-01T07:53:07.690Z,22.42
2022-08-01T07:54:10.599Z,22.43
2022-08-01T07:55:16.449Z,22.43
2022-08-01T07:56:19.997Z,22.45
2022-08-01T07:57:23.215Z,22.46
2022-08-01T07:58:26.257Z,22.44
2022-08-01T07:59:29.220Z,22.43
2022-08-01T08:00:32.319Z,22.45
2022-08-01T08:01:35.280Z,22.48
2022-08-01T08:02:38.264Z,22.50
2022-08-01T08:03:41.367Z,22.52
2022-08-01T08:04:48.530Z,22.53
2022-08-01T08:06:00.103Z,22.48
2022-08-01T08:07:04.289Z,22.45
2022-08-01T08:08:08.118Z,22.44
2022-08-01T08:09:11.453Z,22.41
2022-08-01T08:10:14.660Z,22.39
2022-08-01T08:11:17.736Z,22.34
2022-08-01T08:12:28.877Z,22.29
2022-08-01T08:13:33.059Z,22.27
2022-08-01T08:14:36.046Z,22.26
2022-08-01T08:15:39.734Z,22.26
2022-08-01T08:16:43.948Z,22.28
2022-08-01T08:17:46.807Z,22.28
2022-08-01T08:18:57.948Z,22.33
2022-08-01T08:20:01.001Z,22.37
2022-08-01T08:21:06.827Z,22.41
2022-08-01T08:22:10.737Z,22.46
2022-08-01T08:23:43.166Z,22.49
2022-08-01T08:24:47.151Z,22.44
2022-08-01T08:25:50.330Z,22.38
2022-08-01T08:26:54.849Z,22.34
2022-08-01T08:27:57.898Z,22.34
2022-08-01T08:29:00.803Z,22.37
2022-08-01T08:30:04.070Z,22.39
2022-08-01T08:31:07.249Z,22.37
2022-08-01T08:32:11.023Z,22.37
2022-08-01T08:33:14.497Z,22.41
2022-08-01T08:34:17.795Z,22.46
2022-08-01T08:35:23.314Z,22.51
2022-08-01T08:36:47.654Z,22.56
2022-08-01T08:37:51.050Z,22.59
2022-08-01T08:39:02.341Z,22.63
2022-08-01T08:40:05.850Z,22.64
2022-08-01T08:41:09.401Z,22.61
2022-08-01T08:42:13.117Z,22.58
2022-08-01T08:43:17.152Z,22.56
2022-08-01T08:44:21.255Z,22.59
2022-08-01T08:45:44.574Z,22.63
2022-08-01T08:46:48.501Z,22.61
2022-08-01T08:47:52.443Z,22.57
2022-08-01T08:48:56.293Z,22.55
2022-08-01T08:50:00.188Z,22.52
2022-08-01T08:51:03.281Z,22.54
2022-08-01T08:52:06.353Z,22.57
2022-08-01T08:53:18.345Z,22.59
2022-08-01T08:54:31.335Z,22.61
2022-08-01T08:55:34.714Z,22.57
2022-08-01T08:56:58.514Z,22.63
2022-08-01T08:58:03.563Z,22.68
2022-08-01T08:59:06.591Z,22.70
2022-08-01T09:00:10.781Z,22.67
2022-08-01T09:01:13.903Z,22.66
2022-08-01T09:02:16.829Z,22.68
2022-08-01T09:03:19.995Z,22.68
2022-08-01T09:04:26.728Z,22.68
2022-08-01T09:05:39.207Z,22.69
2022-08-01T09:06:42.456Z,22.74
2022-08-01T09:07:45.301Z,22.78
2022-08-01T09:08:48.320Z,22.77
2022-08-01T09:09:51.569Z,22.76
2022-08-01T09:10:54.866Z,22.76
2022-08-01T09:11:58.166Z,22.76
2022-08-01T09:13:04.162Z,22.75
2022-08-01T09:14:14.783Z,22.78
2022-08-01T09:15:38.291Z,22.87
2022-08-01T09:16:47.949Z,22.91
2022-08-01T09:17:51.720Z,22.94
2022-08-01T09:18:54.593Z,22.97
2022-08-01T09:19:59.068Z,23.03
2022-08-01T09:21:09.078Z,23.07
2022-08-01T09:22:13.326Z,23.06
2022-08-01T09:23:35.564Z,23.04
2022-08-01T09:24:38.819Z,23.01
2022-08-01T09:25:56.749Z,23.06
2022-08-01T09:27:03.566Z,23.08
2022-08-01T09:28:07.988Z,23.08
2022-08-01T09:29:37.854Z,23.06
2022-08-01T09:30:41.786Z,23.05
2022-08-01T09:31:47.996Z,23.07
2022-08-01T09:32:55.483Z,23.09
2022-08-01T09:34:00.006Z,23.08
2022-08-01T09:35:23.121Z,23.08
2022-08-01T09:36:27.143Z,23.11
2022-08-01T09:37:36.992Z,23.16
2022-08-01T09:38:43.911Z,23.19
2022-08-01T09:39:55.789Z,23.23
2022-08-01T09:40:59.758Z,23.29
2022-08-01T09:42:28.748Z,23.35
2022-08-01T09:43:32.880Z,23.39
2022-08-01T09:44:44.732Z,23.34
2022-08-01T09:45:58.367Z,23.30
2022-08-01T09:47:07.796Z,23.28
2022-08-01T09:48:13.080Z,23.25
2022-08-01T09:49:16.117Z,23.23
2022-08-01T09:50:19.914Z,23.28
2022-08-01T09:51:58.917Z,23.35
2022-08-01T09:52:57.983Z,23.40
2022-08-01T09:54:01.594Z,23.44
2022-08-01T09:55:06.087Z,23.48
2022-08-01T09:56:12.959Z,23.43
2022-08-01T09:57:17.253Z,23.38
2022-08-01T09:58:21.541Z,23.35
2022-08-01T09:59:56.664Z,23.27
2022-08-01T10:01:05.254Z,23.21
2022-08-01T10:02:08.696Z,23.15
2022-08-01T10:03:25.577Z,23.06
2022-08-01T10:04:28.695Z,23.00
2022-08-01T10:05:32.460Z,22.96
2022-08-01T10:06:43.734Z,22.93
2022-08-01T10:07:58.233Z,22.98
2022-08-01T10:09:01.906Z,23.02
2022-08-01T10:10:12.222Z,23.03
2022-08-01T10:11:16.566Z,23.04
2022-08-01T10:12:21.974Z,23.03
2022-08-01T10:13:25.247Z,22.99
2022-08-01T10:14:40.028Z,23.00
2022-08-01T10:15:44.096Z,23.07
2022-08-01T10:16:53.217Z,23.16
2022-08-01T10:18:00.272Z,23.27
2022-08-01T10:19:14.637Z,23.31
2022-08-01T10:20:30.238Z,23.39
2022-08-01T10:21:57.413Z,23.49
2022-08-01T10:23:06.273Z,23.56
2022-08-01T10:24:10.651Z,23.58
2022-08-01T10:25:17.691Z,23.60
2022-08-01T10:26:41.213Z,23.62
2022-08-01T10:27:46.545Z,23.57
2022-08-01T10:28:51.198Z,23.45
2022-08-01T10:30:08.602Z,23.40
2022-08-01T10:31:20.449Z,23.47
2022-08-01T10:32:35.900Z,23.58
2022-08-01T10:33:51.172Z,23.66
2022-08-01T10:34:57.189Z,23.71
2022-08-01T10:36:00.226Z,23.77
2022-08-01T10:37:05.518Z,23.75
2022-08-01T10:38:10.846Z,23.75
2022-08-01T10:39:20.090Z,23.74
2022-08-01T10:40:31.591Z,23.76
2022-08-01T10:41:35.463Z,23.82
2022-08-01T10:42:40.156Z,23.87
2022-08-01T10:43:46.952Z,23.94
2022-08-01T10:44:50.677Z,23.98
2022-08-01T10:45:55.192Z,23.99
2022-08-01T10:47:03.568Z,24.03
2022-08-01T10:48:12.776Z,24.10
2022-08-01T10:49:17.873Z,24.13
2022-08-01T10:50:28.644Z,24.16
2022-08-01T10:51:52.726Z,24.23
2022-08-01T10:53:15.204Z,24.31
2022-08-01T10:54:20.005Z,24.31
2022-08-01T10:55:24.328Z,24.31
2022-08-01T10:56:39.668Z,24.34
2022-08-01T10:57:43.816Z,24.36
2022-08-01T10:59:06.748Z,24.38
2022-08-01T11:00:19.328Z,24.41
2022-08-01T11:01:22.374Z,24.48
2022-08-01T11:02:33.082Z,24.51
2022-08-01T11:03:56.018Z,24.46
2022-08-01T11:05:02.715Z,24.44
2022-08-01T11:06:08.330Z,24.41
2022-08-01T11:07:17.958Z,24.41
2022-08-01T11:08:22.745Z,24.32
2022-08-01T11:09:41.480Z,24.20
2022-08-01T11:10:44.543Z,24.10
2022-08-01T11:11:59.076Z,24.13
2022-08-01T11:13:06.756Z,24.22
2022-08-01T11:14:13.902Z,24.31
2022-08-01T11:15:29.612Z,24.39
2022-08-01T11:16:35.166Z,24.37
2022-08-01T11:17:54.952Z,24.27
2022-08-01T11:18:58.185Z,24.25
2022-08-01T11:20:11.362Z,24.31
2022-08-01T11:21:57.405Z,24.42
2022-08-01T11:22:58.557Z,24.50
2022-08-01T11:24:01.940Z,24.59
2022-08-01T11:25:05.044Z,24.65
2022-08-01T11:26:10.321Z,24.71
2022-08-01T11:27:23.530Z,24.88
2022-08-01T11:28:32.697Z,25.11
2022-08-01T11:29:38.167Z,25.34
2022-08-01T11:30:41.633Z,25.57
2022-08-01T11:31:45.207Z,25.77
2022-08-01T11:33:11.336Z,25.99
2022-08-01T11:34:15.726Z,26.18
2022-08-01T11:35:20.621Z,26.33
2022-08-01T11:36:55.795Z,26.45
2022-08-01T11:37:46.889Z,26.53
2022-08-01T11:38:49.906Z,26.59
2022-08-01T11:40:18.914Z,26.67
2022-08-01T11:41:37.108Z,26.83
2022-08-01T11:42:40.923Z,26.83
2022-08-01T11:44:03.954Z,26.81
2022-08-01T11:45:13.316Z,26.86
2022-08-01T11:46:18.540Z,26.97
2022-08-01T11:47:41.369Z,27.11
2022-08-01T11:48:44.334Z,27.24
2022-08-01T11:49:49.906Z,27.36
2022-08-01T11:50:54.202Z,27.57
2022-08-01T11:52:01.412Z,27.76
2022-08-01T11:53:08.312Z,27.97
2022-08-01T11:54:11.211Z,28.16
2022-08-01T11:55:16.767Z,28.24
2022-08-01T11:56:20.052Z,28.35
2022-08-01T11:57:34.117Z,28.41
2022-08-01T11:58:37.896Z,28.55
2022-08-01T12:00:02.733Z,28.58
2022-08-01T12:01:15.812Z,28.56
2022-08-01T12:02:31.060Z,28.62
2022-08-01T12:03:34.798Z,28.81
2022-08-01T12:04:47.016Z,28.96
2022-08-01T12:05:49.905Z,29.16
2022-08-01T12:06:52.852Z,29.31
2022-08-01T12:07:57.225Z,29.41
2022-08-01T12:09:15.929Z,29.46
2022-08-01T12:10:20.395Z,29.58
2022-08-01T12:11:23.340Z,29.74
2022-08-01T12:12:26.332Z,29.89
2022-08-01T12:13:31.264Z,30.01
2022-08-01T12:14:34.136Z,30.16
2022-08-01T12:15:39.569Z,30.27
2022-08-01T12:16:48.962Z,30.34
2022-08-01T12:17:58.484Z,30.44
2022-08-01T12:19:02.461Z,30.52
2022-08-01T12:20:06.888Z,30.57
2022-08-01T12:21:09.810Z,30.66
2022-08-01T12:22:14.700Z,30.77
2022-08-01T12:23:17.977Z,30.89
2022-08-01T12:24:24.868Z,31.00
2022-08-01T12:25:27.839Z,31.08
2022-08-01T12:26:40.997Z,31.20
2022-08-01T12:27:45.235Z,31.25
2022-08-01T12:28:48.312Z,31.27
2022-08-01T12:29:51.540Z,31.30
2022-08-01T12:30:54.442Z,31.44
2022-08-01T12:31:57.937Z,31.53
2022-08-01T12:33:00.904Z,31.65
2022-08-01T12:34:22.350Z,31.78
2022-08-01T12:35:26.680Z,31.94
2022-08-01T12:36:29.924Z,32.03
2022-08-01T12:37:37.126Z,32.09
2022-08-01T12:38:39.997Z,32.24
2022-08-01T12:39:43.035Z,32.43
2022-08-01T12:40:47.548Z,32.59
2022-08-01T12:41:54.796Z,32.78
2022-08-01T12:43:03.237Z,32.97
2022-08-01T12:44:14.101Z,32.99
2022-08-01T12:45:18.584Z,33.05
2022-08-01T12:46:22.666Z,33.21
2022-08-01T12:47:25.696Z,33.35
2022-08-01T12:48:29.173Z,33.39
2022-08-01T12:49:33.518Z,33.56
2022-08-01T12:50:37.950Z,33.79
2022-08-01T12:51:41.315Z,33.88
2022-08-01T12:52:45.075Z,34.03
2022-08-01T12:53:48.905Z,34.23
2022-08-01T12:55:06.459Z,34.46
2022-08-01T12:56:13.022Z,34.71
2022-08-01T12:57:25.283Z,35.00
2022-08-01T12:58:32.105Z,35.09
2022-08-01T12:59:35.244Z,35.15
2022-08-01T13:00:40.662Z,35.29
2022-08-01T13:01:44.246Z,35.47
2022-08-01T13:02:48.028Z,35.64
2022-08-01T13:04:02.298Z,35.72
2022-08-01T13:05:05.525Z,35.84
2022-08-01T13:06:16.490Z,36.00
2022-08-01T13:07:20.215Z,36.18
2022-08-01T13:08:24.686Z,36.28
2022-08-01T13:09:27.698Z,36.34
2022-08-01T13:10:31.732Z,36.31
2022-08-01T13:11:34.688Z,36.25
2022-08-01T13:12:38.587Z,36.24
2022-08-01T13:13:52.197Z,36.27
2022-08-01T13:14:56.018Z,36.31
2022-08-01T13:16:06.559Z,36.27
2022-08-01T13:17:09.628Z,36.35
2022-08-01T13:18:24.889Z,36.41
2022-08-01T13:19:49.567Z,36.41
2022-08-01T13:21:08.292Z,36.26
2022-08-01T13:22:11.554Z,36.19
2022-08-01T13:23:21.350Z,36.20
2022-08-01T13:24:41.777Z,36.57
2022-08-01T13:25:54.990Z,36.69
2022-08-01T13:27:04.137Z,36.68
2022-08-01T13:28:39.341Z,36.75
2022-08-01T13:29:42.792Z,36.79
2022-08-01T13:30:52.582Z,36.79
2022-08-01T13:31:55.482Z,36.69
2022-08-01T13:33:01.858Z,36.64
2022-08-01T13:34:07.575Z,36.80
2022-08-01T13:35:15.817Z,36.91
2022-08-01T13:36:18.916Z,36.98
2022-08-01T13:37:31.225Z,37.01
2022-08-01T13:38:53.744Z,37.00
2022-08-01T13:39:56.593Z,37.01
2022-08-01T13:40:59.870Z,36.99
2022-08-01T13:42:03.805Z,36.93
2022-08-01T13:43:07.116Z,37.01
2022-08-01T13:44:11.580Z,37.20
2022-08-01T13:45:15.221Z,37.28
2022-08-01T13:46:18.795Z,37.33
2022-08-01T13:47:31.510Z,37.47
2022-08-01T13:48:35.727Z,37.55
2022-08-01T13:49:40.997Z,37.60
2022-08-01T13:50:43.974Z,37.61
2022-08-01T13:51:47.530Z,37.64
2022-08-01T13:52:50.703Z,37.64
2022-08-01T13:53:53.879Z,37.56
2022-08-01T13:54:56.862Z,37.47
2022-08-01T13:55:59.794Z,37.44
2022-08-01T13:57:03.123Z,37.48
2022-08-01T13:58:06.607Z,37.39
2022-08-01T13:59:09.638Z,37.27
2022-08-01T14:00:12.840Z,37.21
2022-08-01T14:01:16.162Z,37.18
2022-08-01T14:02:19.166Z,37.09
2022-08-01T14:03:23.181Z,37.13
2022-08-01T14:04:36.690Z,37.29
2022-08-01T14:05:40.632Z,37.33
2022-08-01T14:06:43.616Z,37.41
2022-08-01T14:07:48.643Z,37.56
2022-08-01T14:08:52.018Z,37.58
2022-08-01T14:10:04.485Z,37.54
2022-08-01T14:11:18.482Z,37.37
2022-08-01T14:12:24.500Z,37.32
2022-08-01T14:13:32.131Z,37.32
2022-08-01T14:14:39.822Z,37.22
2022-08-01T14:15:42.702Z,36.91
2022-08-01T14:16:46.899Z,36.66
2022-08-01T14:17:49.903Z,36.55